sensor_id;sensor_type;location;lat;lon;timestamp;pressure;altitude;pressure_sealevel;temperature;humidity
84663;BME280;74891;59.208;18.220;2024-02-28T00:00:46;101559.44;;;0.99;90.31
84663;BME280;74891;59.208;18.220;2024-02-28T00:03:11;101559.44;;;0.99;90.31
84663;BME280;74891;59.208;18.220;2024-02-28T00:05:42;101551.00;;;0.97;89.96
84663;BME280;74891;59.208;18.220;2024-02-28T00:08:16;101542.84;;;0.92;90.00
84663;BME280;74891;59.208;18.220;2024-02-28T00:10:47;101504.47;;;0.68;89.65
84663;BME280;74891;59.208;18.220;2024-02-28T00:13:12;101548.69;;;0.94;89.76
84663;BME280;74891;59.208;18.220;2024-02-28T00:15:50;101531.44;;;0.84;90.06
84663;BME280;74891;59.208;18.220;2024-02-28T00:18:25;101539.28;;;0.93;89.87
84663;BME280;74891;59.208;18.220;2024-02-28T00:20:51;101531.13;;;0.87;90.89
84663;BME280;74891;59.208;18.220;2024-02-28T00:23:36;101542.16;;;0.89;90.36
84663;BME280;74891;59.208;18.220;2024-02-28T00:26:04;101533.34;;;0.82;90.50
84663;BME280;74891;59.208;18.220;2024-02-28T00:28:32;101531.69;;;0.81;90.17
84663;BME280;74891;59.208;18.220;2024-02-28T00:30:57;101502.19;;;0.64;90.20
84663;BME280;74891;59.208;18.220;2024-02-28T00:33:28;101536.63;;;0.84;89.77
84663;BME280;74891;59.208;18.220;2024-02-28T00:36:07;101531.69;;;0.81;89.48
84663;BME280;74891;59.208;18.220;2024-02-28T00:38:44;101529.56;;;0.77;89.64
84663;BME280;74891;59.208;18.220;2024-02-28T00:41:18;101482.22;;;0.47;89.97
84663;BME280;74891;59.208;18.220;2024-02-28T00:43:46;101529.84;;;0.74;90.20
84663;BME280;74891;59.208;18.220;2024-02-28T00:46:11;101524.41;;;0.67;89.84
84663;BME280;74891;59.208;18.220;2024-02-28T00:48:43;101530.94;;;0.71;90.44
84663;BME280;74891;59.208;18.220;2024-02-28T00:51:14;101531.06;;;0.70;90.16
84663;BME280;74891;59.208;18.220;2024-02-28T00:53:48;101529.56;;;0.77;90.06
84663;BME280;74891;59.208;18.220;2024-02-28T00:56:18;101538.81;;;0.79;89.95
84663;BME280;74891;59.208;18.220;2024-02-28T01:01:45;101529.94;;;0.82;89.52
84663;BME280;74891;59.208;18.220;2024-02-28T01:04:12;101530.59;;;0.84;90.10
84663;BME280;74891;59.208;18.220;2024-02-28T01:07:07;101528.75;;;0.76;89.59
84663;BME280;74891;59.208;18.220;2024-02-28T01:09:41;101526.88;;;0.69;89.96
84663;BME280;74891;59.208;18.220;2024-02-28T01:12:09;101523.97;;;0.72;89.84
84663;BME280;74891;59.208;18.220;2024-02-28T01:14:37;101528.66;;;0.68;90.12
84663;BME280;74891;59.208;18.220;2024-02-28T01:17:03;101527.97;;;0.66;90.39
84663;BME280;74891;59.208;18.220;2024-02-28T01:19:37;101521.81;;;0.67;89.74
84663;BME280;74891;59.208;18.220;2024-02-28T01:22:16;101525.50;;;0.64;90.30
84663;BME280;74891;59.208;18.220;2024-02-28T01:24:42;101518.31;;;0.58;90.42
84663;BME280;74891;59.208;18.220;2024-02-28T01:27:36;101519.13;;;0.59;90.78
84663;BME280;74891;59.208;18.220;2024-02-28T01:30:06;101499.69;;;0.45;90.38
84663;BME280;74891;59.208;18.220;2024-02-28T01:32:31;101487.03;;;0.32;90.22
84663;BME280;74891;59.208;18.220;2024-02-28T01:35:02;101510.81;;;0.55;90.58
84663;BME280;74891;59.208;18.220;2024-02-28T01:37:33;101516.19;;;0.44;90.53
84663;BME280;74891;59.208;18.220;2024-02-28T01:40:10;101515.09;;;0.47;90.75
84663;BME280;74891;59.208;18.220;2024-02-28T01:42:36;101520.28;;;0.47;89.99
84663;BME280;74891;59.208;18.220;2024-02-28T01:45:17;101517.13;;;0.43;90.67
84663;BME280;74891;59.208;18.220;2024-02-28T01:47:45;101504.91;;;0.35;91.05
84663;BME280;74891;59.208;18.220;2024-02-28T01:50:41;101515.00;;;0.38;90.81
84663;BME280;74891;59.208;18.220;2024-02-28T01:53:10;101508.16;;;0.37;90.77
84663;BME280;74891;59.208;18.220;2024-02-28T01:55:46;101504.63;;;0.38;90.99
84663;BME280;74891;59.208;18.220;2024-02-28T01:58:17;101503.78;;;0.38;90.32
84663;BME280;74891;59.208;18.220;2024-02-28T02:00:45;101421.44;;;-0.24;90.00
84663;BME280;74891;59.208;18.220;2024-02-28T02:03:11;101506.81;;;0.33;90.58
84663;BME280;74891;59.208;18.220;2024-02-28T02:05:44;101497.00;;;0.37;91.33
84663;BME280;74891;59.208;18.220;2024-02-28T02:08:12;101502.16;;;0.37;90.22
84663;BME280;74891;59.208;18.220;2024-02-28T02:10:43;101496.19;;;0.36;90.03
84663;BME280;74891;59.208;18.220;2024-02-28T02:13:17;101491.00;;;0.36;90.66
84663;BME280;74891;59.208;18.220;2024-02-28T02:15:51;101485.13;;;0.34;89.83
84663;BME280;74891;59.208;18.220;2024-02-28T02:18:19;101487.72;;;0.34;90.83
84663;BME280;74891;59.208;18.220;2024-02-28T02:20:50;101485.81;;;0.36;90.29
84663;BME280;74891;59.208;18.220;2024-02-28T02:23:23;101462.28;;;0.20;90.51
84663;BME280;74891;59.208;18.220;2024-02-28T02:25:48;101475.63;;;0.25;91.05
84663;BME280;74891;59.208;18.220;2024-02-28T02:28:16;101484.31;;;0.34;90.49
84663;BME280;74891;59.208;18.220;2024-02-28T02:30:53;101488.31;;;0.28;90.84
84663;BME280;74891;59.208;18.220;2024-02-28T02:33:21;101482.16;;;0.29;90.50
84663;BME280;74891;59.208;18.220;2024-02-28T02:35:46;101486.09;;;0.33;90.67
84663;BME280;74891;59.208;18.220;2024-02-28T02:38:21;101485.28;;;0.33;90.20
84663;BME280;74891;59.208;18.220;2024-02-28T02:44:15;101489.91;;;0.39;90.29
84663;BME280;74891;59.208;18.220;2024-02-28T02:46:48;101483.94;;;0.29;90.46
84663;BME280;74891;59.208;18.220;2024-02-28T02:49:16;101486.66;;;0.27;90.95
84663;BME280;74891;59.208;18.220;2024-02-28T02:52:03;101440.16;;;-0.02;90.83
84663;BME280;74891;59.208;18.220;2024-02-28T02:54:37;101481.75;;;0.24;90.36
84663;BME280;74891;59.208;18.220;2024-02-28T02:57:03;101477.53;;;0.23;90.76
84663;BME280;74891;59.208;18.220;2024-02-28T02:59:31;101481.75;;;0.24;91.37
84663;BME280;74891;59.208;18.220;2024-02-28T03:01:57;101485.19;;;0.25;90.59
84663;BME280;74891;59.208;18.220;2024-02-28T03:04:22;101485.31;;;0.23;90.59
84663;BME280;74891;59.208;18.220;2024-02-28T03:06:48;101488.31;;;0.28;91.13
84663;BME280;74891;59.208;18.220;2024-02-28T03:09:27;101484.44;;;0.32;91.31
84663;BME280;74891;59.208;18.220;2024-02-28T03:11:56;101482.16;;;0.29;90.91
84663;BME280;74891;59.208;18.220;2024-02-28T03:14:27;101469.50;;;0.26;91.25
84663;BME280;74891;59.208;18.220;2024-02-28T03:16:58;101445.00;;;0.11;91.08
84663;BME280;74891;59.208;18.220;2024-02-28T03:19:28;101477.94;;;0.28;91.04
84663;BME280;74891;59.208;18.220;2024-02-28T03:21:56;101471.09;;;0.27;91.13
84663;BME280;74891;59.208;18.220;2024-02-28T03:24:28;101462.00;;;0.23;90.67
84663;BME280;74891;59.208;18.220;2024-02-28T03:26:59;101464.88;;;0.20;90.92
84663;BME280;74891;59.208;18.220;2024-02-28T03:29:34;101465.41;;;0.24;90.76
84663;BME280;74891;59.208;18.220;2024-02-28T03:32:05;101461.31;;;0.21;90.96
84663;BME280;74891;59.208;18.220;2024-02-28T03:34:31;101460.22;;;0.24;91.21
84663;BME280;74891;59.208;18.220;2024-02-28T03:37:05;101465.94;;;0.27;90.86
84663;BME280;74891;59.208;18.220;2024-02-28T03:39:31;101433.31;;;0.07;90.51
84663;BME280;74891;59.208;18.220;2024-02-28T03:42:25;101465.56;;;0.22;91.81
84663;BME280;74891;59.208;18.220;2024-02-28T03:45:03;101463.22;;;0.19;91.17
84663;BME280;74891;59.208;18.220;2024-02-28T03:47:54;101464.88;;;0.20;91.06
84663;BME280;74891;59.208;18.220;2024-02-28T03:50:22;101456.44;;;0.18;90.83
84663;BME280;74891;59.208;18.220;2024-02-28T03:52:48;101448.81;;;0.16;91.12
84663;BME280;74891;59.208;18.220;2024-02-28T03:55:16;101455.09;;;0.14;90.58
84663;BME280;74891;59.208;18.220;2024-02-28T03:57:50;101454.25;;;0.13;91.39
84663;BME280;74891;59.208;18.220;2024-02-28T04:00:17;101467.31;;;0.21;91.23
84663;BME280;74891;59.208;18.220;2024-02-28T04:02:48;101465.19;;;0.17;91.47
84663;BME280;74891;59.208;18.220;2024-02-28T04:05:14;101466.97;;;0.16;91.62
84663;BME280;74891;59.208;18.220;2024-02-28T04:08:02;101462.44;;;0.18;91.05
84663;BME280;74891;59.208;18.220;2024-02-28T04:10:32;101460.00;;;0.17;91.13
84663;BME280;74891;59.208;18.220;2024-02-28T04:12:57;101464.38;;;0.16;91.91
84663;BME280;74891;59.208;18.220;2024-02-28T04:15:32;101454.94;;;0.15;91.42
84663;BME280;74891;59.208;18.220;2024-02-28T04:18:01;101464.88;;;0.20;91.53
84663;BME280;74891;59.208;18.220;2024-02-28T04:20:26;101461.63;;;0.18;90.81
84663;BME280;74891;59.208;18.220;2024-02-28T04:22:52;101450.88;;;0.13;91.31
84663;BME280;74891;59.208;18.220;2024-02-28T04:25:20;101410.78;;;-0.11;91.50
84663;BME280;74891;59.208;18.220;2024-02-28T04:27:48;101406.69;;;-0.13;91.84
84663;BME280;74891;59.208;18.220;2024-02-28T04:30:14;101445.97;;;0.10;91.65
84663;BME280;74891;59.208;18.220;2024-02-28T04:32:42;101437.56;;;-0.02;92.26
84663;BME280;74891;59.208;18.220;2024-02-28T04:35:10;101446.84;;;0.01;91.72
84663;BME280;74891;59.208;18.220;2024-02-28T04:37:36;101450.47;;;0.08;91.47
84663;BME280;74891;59.208;18.220;2024-02-28T04:40:08;101452.13;;;0.09;91.49
84663;BME280;74891;59.208;18.220;2024-02-28T04:42:53;101451.16;;;0.10;91.83
84663;BME280;74891;59.208;18.220;2024-02-28T04:45:24;101445.28;;;0.08;91.74
84663;BME280;74891;59.208;18.220;2024-02-28T04:47:51;101448.31;;;0.03;92.05
84663;BME280;74891;59.208;18.220;2024-02-28T04:50:19;101446.78;;;0.10;91.42
84663;BME280;74891;59.208;18.220;2024-02-28T04:52:44;101446.66;;;0.12;91.63
84663;BME280;74891;59.208;18.220;2024-02-28T04:55:10;101444.34;;;0.09;91.75
84663;BME280;74891;59.208;18.220;2024-02-28T04:57:38;101437.53;;;0.08;92.42
84663;BME280;74891;59.208;18.220;2024-02-28T05:00:10;101425.25;;;0.10;91.70
84663;BME280;74891;59.208;18.220;2024-02-28T05:02:50;101431.53;;;0.07;91.02
84663;BME280;74891;59.208;18.220;2024-02-28T05:05:20;101422.28;;;0.05;91.21
84663;BME280;74891;59.208;18.220;2024-02-28T05:07:48;101423.94;;;0.06;92.00
84663;BME280;74891;59.208;18.220;2024-02-28T05:10:14;101428.66;;;0.10;91.45
84663;BME280;74891;59.208;18.220;2024-02-28T05:12:48;101422.84;;;0.08;91.76
84663;BME280;74891;59.208;18.220;2024-02-28T05:15:20;101426.22;;;0.09;91.57
84663;BME280;74891;59.208;18.220;2024-02-28T05:17:45;101433.72;;;0.12;91.70
84663;BME280;74891;59.208;18.220;2024-02-28T05:20:33;101437.91;;;0.13;91.27
84663;BME280;74891;59.208;18.220;2024-02-28T05:23:07;101432.75;;;0.13;91.34
84663;BME280;74891;59.208;18.220;2024-02-28T05:25:51;101414.63;;;0.13;92.27
84663;BME280;74891;59.208;18.220;2024-02-28T05:28:17;101427.44;;;0.14;91.65
84663;BME280;74891;59.208;18.220;2024-02-28T05:30:43;101427.44;;;0.14;91.22
84663;BME280;74891;59.208;18.220;2024-02-28T05:36:16;101412.09;;;0.03;91.43
84663;BME280;74891;59.208;18.220;2024-02-28T05:38:42;101389.22;;;-0.11;91.60
84663;BME280;74891;59.208;18.220;2024-02-28T05:41:11;101432.44;;;0.16;91.57
84663;BME280;74891;59.208;18.220;2024-02-28T05:44:10;101430.81;;;0.15;91.25
84663;BME280;74891;59.208;18.220;2024-02-28T05:46:35;101428.53;;;0.12;91.54
84663;BME280;74891;59.208;18.220;2024-02-28T05:49:09;101425.13;;;0.11;91.44
84663;BME280;74891;59.208;18.220;2024-02-28T05:51:44;101423.75;;;0.17;91.88
84663;BME280;74891;59.208;18.220;2024-02-28T05:54:15;101427.13;;;0.17;91.55
84663;BME280;74891;59.208;18.220;2024-02-28T05:59:27;101422.09;;;0.16;91.55
84663;BME280;74891;59.208;18.220;2024-02-28T06:01:55;101425.88;;;0.21;92.19
84663;BME280;74891;59.208;18.220;2024-02-28T06:04:29;101423.16;;;0.23;91.86
84663;BME280;74891;59.208;18.220;2024-02-28T06:06:57;101420.56;;;0.23;90.95
84663;BME280;74891;59.208;18.220;2024-02-28T06:09:23;101428.06;;;0.26;91.24
84663;BME280;74891;59.208;18.220;2024-02-28T06:12:01;101388.91;;;0.02;90.90
84663;BME280;74891;59.208;18.220;2024-02-28T06:14:29;101387.28;;;0.01;90.73
84663;BME280;74891;59.208;18.220;2024-02-28T06:17:12;101425.47;;;0.26;91.20
84663;BME280;74891;59.208;18.220;2024-02-28T06:19:41;101426.94;;;0.29;91.37
84663;BME280;74891;59.208;18.220;2024-02-28T06:22:14;101392.50;;;0.18;91.40
84663;BME280;74891;59.208;18.220;2024-02-28T06:24:47;101425.56;;;0.34;90.96
84663;BME280;74891;59.208;18.220;2024-02-28T06:27:30;101422.16;;;0.34;91.51
84663;BME280;74891;59.208;18.220;2024-02-28T06:29:58;101422.28;;;0.32;90.96
84663;BME280;74891;59.208;18.220;2024-02-28T06:32:31;101423.94;;;0.33;91.80
84663;BME280;74891;59.208;18.220;2024-02-28T06:35:02;101436.44;;;0.38;91.44
84663;BME280;74891;59.208;18.220;2024-02-28T06:37:32;101423.94;;;0.33;90.67
84663;BME280;74891;59.208;18.220;2024-02-28T06:40:05;101426.38;;;0.35;90.83
84663;BME280;74891;59.208;18.220;2024-02-28T06:42:42;101394.56;;;0.15;91.40
84663;BME280;74891;59.208;18.220;2024-02-28T06:45:15;101416.97;;;0.34;90.96
84663;BME280;74891;59.208;18.220;2024-02-28T06:47:46;101428.66;;;0.38;90.76
84663;BME280;74891;59.208;18.220;2024-02-28T06:50:40;101426.63;;;0.41;91.15
84663;BME280;74891;59.208;18.220;2024-02-28T06:53:11;101420.09;;;0.37;90.52
84663;BME280;74891;59.208;18.220;2024-02-28T06:55:42;101418.47;;;0.36;90.45
84663;BME280;74891;59.208;18.220;2024-02-28T06:58:13;101426.63;;;0.41;90.40
84663;BME280;74891;59.208;18.220;2024-02-28T07:00:56;101424.31;;;0.38;90.57
84663;BME280;74891;59.208;18.220;2024-02-28T07:03:27;101435.19;;;0.42;91.10
84663;BME280;74891;59.208;18.220;2024-02-28T07:06:00;101430.84;;;0.42;91.03
84663;BME280;74891;59.208;18.220;2024-02-28T07:08:28;101427.44;;;0.42;91.08
84663;BME280;74891;59.208;18.220;2024-02-28T07:10:54;101424.16;;;0.40;91.17
84663;BME280;74891;59.208;18.220;2024-02-28T07:14:11;101434.22;;;0.43;90.97
84663;BME280;74891;59.208;18.220;2024-02-28T07:16:58;101433.41;;;0.42;90.39
84663;BME280;74891;59.208;18.220;2024-02-28T07:19:28;101409.34;;;0.32;90.79
84663;BME280;74891;59.208;18.220;2024-02-28T07:22:09;101427.41;;;0.52;90.11
84663;BME280;74891;59.208;18.220;2024-02-28T07:24:47;101423.66;;;0.54;90.14
84663;BME280;74891;59.208;18.220;2024-02-28T07:27:15;101422.22;;;0.52;90.64
84663;BME280;74891;59.208;18.220;2024-02-28T07:29:46;101389.28;;;0.34;90.01
84663;BME280;74891;59.208;18.220;2024-02-28T07:32:29;101399.34;;;0.37;89.97
84663;BME280;74891;59.208;18.220;2024-02-28T07:35:04;101428.72;;;0.56;90.36
84663;BME280;74891;59.208;18.220;2024-02-28T07:37:36;101427.09;;;0.55;89.94
84663;BME280;74891;59.208;18.220;2024-02-28T07:40:13;101380.84;;;0.32;90.33
84663;BME280;74891;59.208;18.220;2024-02-28T07:42:52;101427.63;;;0.58;90.18
84663;BME280;74891;59.208;18.220;2024-02-28T07:45:18;101428.00;;;0.63;89.80
84663;BME280;74891;59.208;18.220;2024-02-28T07:47:46;101427.69;;;0.66;90.25
84663;BME280;74891;59.208;18.220;2024-02-28T07:50:18;101436.88;;;0.61;90.55
84663;BME280;74891;59.208;18.220;2024-02-28T07:52:53;101426.81;;;0.58;89.58
84663;BME280;74891;59.208;18.220;2024-02-28T07:55:32;101422.44;;;0.58;90.44
84663;BME280;74891;59.208;18.220;2024-02-28T07:58:10;101340.91;;;0.07;89.78
84663;BME280;74891;59.208;18.220;2024-02-28T08:00:41;101420.66;;;0.59;90.07
84663;BME280;74891;59.208;18.220;2024-02-28T08:03:12;101417.94;;;0.60;90.59
84663;BME280;74891;59.208;18.220;2024-02-28T08:05:40;101417.47;;;0.65;90.40
84663;BME280;74891;59.208;18.220;2024-02-28T08:08:20;101428.94;;;0.62;90.45
84663;BME280;74891;59.208;18.220;2024-02-28T08:13:54;101426.00;;;0.57;89.99
84663;BME280;74891;59.208;18.220;2024-02-28T08:16:19;101424.88;;;0.60;90.68
84663;BME280;74891;59.208;18.220;2024-02-28T08:18:48;101421.03;;;0.64;90.54
84663;BME280;74891;59.208;18.220;2024-02-28T08:21:18;101419.50;;;0.71;90.14
84663;BME280;74891;59.208;18.220;2024-02-28T08:23:47;101421.53;;;0.68;89.97
84663;BME280;74891;59.208;18.220;2024-02-28T08:26:16;101411.72;;;0.71;90.03
84663;BME280;74891;59.208;18.220;2024-02-28T08:28:42;101379.63;;;0.54;89.98
84663;BME280;74891;59.208;18.220;2024-02-28T08:31:08;101404.59;;;0.73;90.10
84663;BME280;74891;59.208;18.220;2024-02-28T08:33:44;101414.22;;;0.81;90.22
84663;BME280;74891;59.208;18.220;2024-02-28T08:36:14;101406.63;;;0.79;89.93
84663;BME280;74891;59.208;18.220;2024-02-28T08:38:50;101421.56;;;0.85;89.85
84663;BME280;74891;59.208;18.220;2024-02-28T08:41:19;101427.44;;;0.87;89.89
84663;BME280;74891;59.208;18.220;2024-02-28T08:43:44;101421.13;;;0.90;89.67
84663;BME280;74891;59.208;18.220;2024-02-28T08:46:14;101424.38;;;0.92;90.27
84663;BME280;74891;59.208;18.220;2024-02-28T08:48:49;101406.00;;;0.85;89.87
84663;BME280;74891;59.208;18.220;2024-02-28T08:51:18;101408.69;;;0.94;89.46
84663;BME280;74891;59.208;18.220;2024-02-28T08:53:51;101421.66;;;0.94;89.87
84663;BME280;74891;59.208;18.220;2024-02-28T08:56:27;101415.13;;;0.89;89.29
84663;BME280;74891;59.208;18.220;2024-02-28T08:58:56;101401.22;;;0.91;89.37
84663;BME280;74891;59.208;18.220;2024-02-28T09:01:24;101413.28;;;1.00;88.90
84663;BME280;74891;59.208;18.220;2024-02-28T09:03:49;101415.50;;;0.95;89.34
84663;BME280;74891;59.208;18.220;2024-02-28T09:06:20;101411.28;;;0.94;89.53
84663;BME280;74891;59.208;18.220;2024-02-28T09:08:57;101408.69;;;0.94;89.39
84663;BME280;74891;59.208;18.220;2024-02-28T09:11:22;101400.09;;;0.93;88.96
84663;BME280;74891;59.208;18.220;2024-02-28T09:13:50;101401.28;;;0.99;89.28
84663;BME280;74891;59.208;18.220;2024-02-28T09:16:16;101391.28;;;1.04;88.76
84663;BME280;74891;59.208;18.220;2024-02-28T09:18:44;101396.16;;;1.07;88.76
84663;BME280;74891;59.208;18.220;2024-02-28T09:21:34;101400.38;;;1.08;88.75
84663;BME280;74891;59.208;18.220;2024-02-28T09:24:02;101405.13;;;1.13;88.79
84663;BME280;74891;59.208;18.220;2024-02-28T09:26:29;101401.72;;;1.12;88.58
84663;BME280;74891;59.208;18.220;2024-02-28T09:28:55;101401.34;;;1.07;88.89
84663;BME280;74891;59.208;18.220;2024-02-28T09:31:28;101401.34;;;1.07;88.58
84663;BME280;74891;59.208;18.220;2024-02-28T09:34:03;101395.13;;;1.00;89.01
84663;BME280;74891;59.208;18.220;2024-02-28T09:36:42;101389.63;;;1.03;89.13
84663;BME280;74891;59.208;18.220;2024-02-28T09:39:18;101407.13;;;1.01;88.28
84663;BME280;74891;59.208;18.220;2024-02-28T09:41:53;101358.31;;;0.78;88.45
84663;BME280;74891;59.208;18.220;2024-02-28T09:44:19;101408.03;;;1.09;89.37
84663;BME280;74891;59.208;18.220;2024-02-28T09:46:53;101401.34;;;1.07;88.75
84663;BME280;74891;59.208;18.220;2024-02-28T09:49:27;101385.56;;;1.00;89.05
84663;BME280;74891;59.208;18.220;2024-02-28T09:51:59;101392.53;;;1.00;89.22
84663;BME280;74891;59.208;18.220;2024-02-28T09:54:25;101359.84;;;0.89;88.70
84663;BME280;74891;59.208;18.220;2024-02-28T09:57:03;101379.25;;;1.03;88.78
84663;BME280;74891;59.208;18.220;2024-02-28T09:59:43;101390.97;;;1.07;88.46
84663;BME280;74891;59.208;18.220;2024-02-28T10:02:10;101391.66;;;1.09;88.81
84663;BME280;74891;59.208;18.220;2024-02-28T10:04:40;101392.16;;;1.13;88.02
84663;BME280;74891;59.208;18.220;2024-02-28T10:07:15;101396.28;;;1.23;87.96
84663;BME280;74891;59.208;18.220;2024-02-28T10:09:48;101393.53;;;1.25;88.72
84663;BME280;74891;59.208;18.220;2024-02-28T10:12:14;101394.06;;;1.28;88.26
84663;BME280;74891;59.208;18.220;2024-02-28T10:14:55;101389.38;;;1.32;87.79
84663;BME280;74891;59.208;18.220;2024-02-28T10:17:23;101389.28;;;1.42;88.36
84663;BME280;74891;59.208;18.220;2024-02-28T10:19:51;101384.91;;;1.42;88.29
84663;BME280;74891;59.208;18.220;2024-02-28T10:22:17;101389.13;;;1.43;87.77
84663;BME280;74891;59.208;18.220;2024-02-28T10:24:45;101390.59;;;1.46;87.76
84663;BME280;74891;59.208;18.220;2024-02-28T10:27:16;101388.69;;;1.48;87.94
84663;BME280;74891;59.208;18.220;2024-02-28T10:29:45;101382.16;;;1.44;87.54
84663;BME280;74891;59.208;18.220;2024-02-28T10:32:11;101372.09;;;1.41;87.16
84663;BME280;74891;59.208;18.220;2024-02-28T10:34:43;101375.50;;;1.41;87.78
84663;BME280;74891;59.208;18.220;2024-02-28T10:37:17;101376.00;;;1.45;87.40
84663;BME280;74891;59.208;18.220;2024-02-28T10:39:52;101367.56;;;1.43;87.40
84663;BME280;74891;59.208;18.220;2024-02-28T10:42:21;101376.50;;;1.48;87.72
84663;BME280;74891;59.208;18.220;2024-02-28T10:44:57;101372.00;;;1.50;87.22
84663;BME280;74891;59.208;18.220;2024-02-28T10:47:31;101372.00;;;1.50;87.59
84663;BME280;74891;59.208;18.220;2024-02-28T10:50:09;101374.72;;;1.49;87.25
84663;BME280;74891;59.208;18.220;2024-02-28T10:52:39;101361.34;;;1.36;87.11
84663;BME280;74891;59.208;18.220;2024-02-28T10:55:11;101333.31;;;1.13;86.86
84663;BME280;74891;59.208;18.220;2024-02-28T10:57:40;101366.88;;;1.41;86.24
84663;BME280;74891;59.208;18.220;2024-02-28T11:00:11;101381.03;;;1.46;87.33
84663;BME280;74891;59.208;18.220;2024-02-28T11:02:42;101370.97;;;1.43;87.46
84663;BME280;74891;59.208;18.220;2024-02-28T11:05:08;101366.31;;;1.47;87.41
84663;BME280;74891;59.208;18.220;2024-02-28T11:07:54;101364.66;;;1.46;87.20
84663;BME280;74891;59.208;18.220;2024-02-28T11:10:30;101362.06;;;1.46;87.13
84663;BME280;74891;59.208;18.220;2024-02-28T11:13:06;101359.47;;;1.46;86.68
84663;BME280;74891;59.208;18.220;2024-02-28T11:15:34;101363.03;;;1.45;87.27
84663;BME280;74891;59.208;18.220;2024-02-28T11:18:09;101354.28;;;1.46;86.68
84663;BME280;74891;59.208;18.220;2024-02-28T11:20:40;101347.25;;;1.38;85.61
84663;BME280;74891;59.208;18.220;2024-02-28T11:23:09;101357.00;;;1.36;86.62
84663;BME280;74891;59.208;18.220;2024-02-28T11:25:48;101350.50;;;1.40;86.40
84663;BME280;74891;59.208;18.220;2024-02-28T11:28:16;101347.31;;;1.46;86.26
84663;BME280;74891;59.208;18.220;2024-02-28T11:30:51;101345.88;;;1.52;85.93
84663;BME280;74891;59.208;18.220;2024-02-28T11:33:19;101341.66;;;1.51;84.59
84663;BME280;74891;59.208;18.220;2024-02-28T11:36:00;101335.34;;;1.53;84.62
84663;BME280;74891;59.208;18.220;2024-02-28T11:38:31;101293.56;;;1.30;83.82
84663;BME280;74891;59.208;18.220;2024-02-28T11:41:08;101326.78;;;1.61;84.16
84663;BME280;74891;59.208;18.220;2024-02-28T11:43:35;101334.16;;;1.74;85.34
84663;BME280;74891;59.208;18.220;2024-02-28T11:46:12;101303.78;;;1.66;85.06
84663;BME280;74891;59.208;18.220;2024-02-28T11:48:40;101338.13;;;1.94;84.87
84663;BME280;74891;59.208;18.220;2024-02-28T11:51:16;101339.47;;;1.98;84.55
84663;BME280;74891;59.208;18.220;2024-02-28T11:53:50;101331.81;;;1.97;84.22
84663;BME280;74891;59.208;18.220;2024-02-28T11:56:18;101306.94;;;1.86;82.85
84663;BME280;74891;59.208;18.220;2024-02-28T11:58:58;101307.50;;;2.14;82.80
84663;BME280;74891;59.208;18.220;2024-02-28T12:01:41;101319.44;;;2.50;82.92
84663;BME280;74891;59.208;18.220;2024-02-28T12:04:14;101277.03;;;2.57;80.84
84663;BME280;74891;59.208;18.220;2024-02-28T12:06:42;101307.28;;;2.75;79.95
84663;BME280;74891;59.208;18.220;2024-02-28T12:09:13;101305.63;;;2.74;81.01
84663;BME280;74891;59.208;18.220;2024-02-28T12:11:49;101260.47;;;2.66;80.97
84663;BME280;74891;59.208;18.220;2024-02-28T12:14:14;101297.19;;;3.13;80.17
84663;BME280;74891;59.208;18.220;2024-02-28T12:16:46;101300.09;;;3.18;79.75
84663;BME280;74891;59.208;18.220;2024-02-28T12:19:19;101300.44;;;2.90;79.15
84663;BME280;74891;59.208;18.220;2024-02-28T12:21:50;101291.03;;;2.73;79.20
84663;BME280;74891;59.208;18.220;2024-02-28T12:24:15;101295.09;;;2.67;79.91
84663;BME280;74891;59.208;18.220;2024-02-28T12:26:48;101297.84;;;2.57;79.70
84663;BME280;74891;59.208;18.220;2024-02-28T12:29:13;101306.28;;;2.59;79.75
84663;BME280;74891;59.208;18.220;2024-02-28T12:31:39;101306.28;;;2.59;79.61
84663;BME280;74891;59.208;18.220;2024-02-28T12:34:08;101303.69;;;2.51;79.82
84663;BME280;74891;59.208;18.220;2024-02-28T12:36:39;101293.59;;;2.32;79.63
84663;BME280;74891;59.208;18.220;2024-02-28T12:39:08;101295.03;;;2.26;80.00
84663;BME280;74891;59.208;18.220;2024-02-28T12:41:39;101276.19;;;2.16;80.53
84663;BME280;74891;59.208;18.220;2024-02-28T12:44:31;101284.44;;;2.11;79.35
84663;BME280;74891;59.208;18.220;2024-02-28T12:47:09;101286.25;;;2.19;80.45
84663;BME280;74891;59.208;18.220;2024-02-28T12:49:38;101284.97;;;2.23;80.11
84663;BME280;74891;59.208;18.220;2024-02-28T12:52:14;101285.13;;;2.30;80.68
84663;BME280;74891;59.208;18.220;2024-02-28T12:54:55;101292.47;;;2.34;80.71
84663;BME280;74891;59.208;18.220;2024-02-28T12:57:26;101300.25;;;2.34;80.70
84663;BME280;74891;59.208;18.220;2024-02-28T12:59:52;101298.34;;;2.44;80.34
84663;BME280;74891;59.208;18.220;2024-02-28T13:02:20;101289.56;;;2.54;80.25
84663;BME280;74891;59.208;18.220;2024-02-28T13:04:47;101290.03;;;2.82;80.15
84663;BME280;74891;59.208;18.220;2024-02-28T13:07:15;101302.53;;;3.03;79.69
84663;BME280;74891;59.208;18.220;2024-02-28T13:09:46;101296.34;;;3.12;78.84
84663;BME280;74891;59.208;18.220;2024-02-28T13:12:12;101287.56;;;3.13;78.28
84663;BME280;74891;59.208;18.220;2024-02-28T13:14:51;101291.63;;;3.16;78.07
84663;BME280;74891;59.208;18.220;2024-02-28T13:17:16;101291.81;;;3.06;75.94
84663;BME280;74891;59.208;18.220;2024-02-28T13:19:41;101286.47;;;2.99;77.40
84663;BME280;74891;59.208;18.220;2024-02-28T13:22:16;101296.88;;;2.83;76.72
84663;BME280;74891;59.208;18.220;2024-02-28T13:24:52;101296.53;;;2.86;76.93
84663;BME280;74891;59.208;18.220;2024-02-28T13:27:18;101284.50;;;2.85;76.85
84663;BME280;74891;59.208;18.220;2024-02-28T13:29:43;101241.16;;;2.61;76.85